Time;durP1;ratioP1;P1;durP2;ratioP2;P2;SDS_P1;SDS_P2;PMS_P1;PMS_P2;Temp;Humidity;BMP_temperature;BMP_pressure;BME280_temperature;BME280_humidity;BME280_pressure;Samples;Min_cycle;Max_cycle;Signal;HPM_P1;HPM_P2
2023/10/04 00:01:04;;;;;;;17.17;8.83;;;;;;;12.44;82.33;95567.34;5134299;27;20551;-70
2023/10/04 00:03:29;;;;;;;15.03;9.07;;;;;;;12.35;82.66;95564.13;5134261;27;20179;-70
2023/10/04 00:05:55;;;;;;;19.33;9.43;;;;;;;12.38;82.75;95562.88;5134215;27;20179;-70
2023/10/04 00:08:23;;;;;;;16.00;8.50;;;;;;;12.36;82.76;95560.47;5133801;27;20192;-70
2023/10/04 00:10:49;;;;;;;23.13;10.13;;;;;;;12.24;82.51;95537.50;5133874;27;20192;-70
2023/10/04 00:13:15;;;;;;;17.47;9.33;;;;;;;12.22;82.63;95542.97;5133791;27;20183;-70
2023/10/04 00:15:40;;;;;;;28.43;12.40;;;;;;;12.31;83.12;95557.59;5133786;27;20176;-70
2023/10/04 00:18:06;;;;;;;28.93;13.70;;;;;;;12.30;82.58;95555.16;5133864;27;20811;-70
2023/10/04 00:20:33;;;;;;;24.03;13.13;;;;;;;12.19;82.78;95543.41;5133446;27;20182;-70
2023/10/04 00:23:00;;;;;;;28.67;14.03;;;;;;;12.24;83.22;95548.06;5133530;27;20712;-70
2023/10/04 00:25:25;;;;;;;36.90;15.17;;;;;;;12.22;82.76;95550.91;5133222;27;20223;-70
2023/10/04 00:27:55;;;;;;;35.73;15.00;;;;;;;12.05;82.61;95520.66;5132531;27;20241;-70
2023/10/04 00:30:22;;;;;;;26.33;13.93;;;;;;;12.08;82.92;95550.09;5133360;27;20168;-70
2023/10/04 00:32:48;;;;;;;36.60;17.87;;;;;;;12.06;83.23;95553.94;5133279;27;20587;-70
2023/10/04 00:35:19;;;;;;;32.70;18.07;;;;;;;12.04;83.37;95554.16;5133264;27;20187;-70
2023/10/04 00:37:51;;;;;;;29.13;14.60;;;;;;;12.04;83.25;95555.97;5133197;27;20169;-70
2023/10/04 00:40:21;;;;;;;28.73;15.17;;;;;;;11.97;83.38;95550.69;5133203;27;20232;-70
2023/10/04 00:42:48;;;;;;;31.93;14.10;;;;;;;11.96;83.59;95550.88;5129386;27;20303;-70
2023/10/04 00:45:14;;;;;;;28.73;14.47;;;;;;;11.98;83.50;95548.88;5112574;28;20246;-70
2023/10/04 00:47:47;;;;;;;28.97;13.93;;;;;;;11.86;83.25;95524.91;5114027;27;20213;-70
2023/10/04 00:50:16;;;;;;;23.90;12.63;;;;;;;11.85;83.33;95525.91;5132926;27;20572;-70
2023/10/04 00:52:47;;;;;;;28.57;13.47;;;;;;;11.96;83.30;95551.72;5114712;27;20172;-70
2023/10/04 00:55:16;;;;;;;27.53;12.73;;;;;;;11.94;83.49;95542.34;5133202;27;20176;-70
2023/10/04 00:57:42;;;;;;;23.30;12.40;;;;;;;11.95;83.32;95544.81;5112954;27;20677;-69
2023/10/04 01:00:10;;;;;;;19.57;10.77;;;;;;;11.93;83.50;95546.03;5112494;28;20177;-69
2023/10/04 01:02:36;;;;;;;26.80;13.27;;;;;;;11.89;83.48;95547.44;5112476;28;20547;-69
2023/10/04 01:05:02;;;;;;;21.87;11.57;;;;;;;11.82;83.60;95544.81;5112115;28;20179;-69
2023/10/04 01:07:30;;;;;;;22.37;9.90;;;;;;;11.84;83.67;95552.53;5093709;28;20554;-69
2023/10/04 01:09:55;;;;;;;25.60;10.93;;;;;;;11.85;83.53;95548.88;5112005;28;20187;-69
2023/10/04 01:12:24;;;;;;;19.20;10.00;;;;;;;11.80;83.82;95548.66;5111792;28;20169;-68
2023/10/04 01:14:53;;;;;;;21.57;9.80;;;;;;;11.83;83.55;95548.25;5111759;28;20263;-68
2023/10/04 01:17:19;;;;;;;19.10;10.00;;;;;;;11.80;83.77;95551.28;5111803;28;20563;-68
2023/10/04 01:19:44;;;;;;;20.73;10.53;;;;;;;11.83;83.44;95554.34;5111638;28;20189;-68
2023/10/04 01:22:11;;;;;;;22.10;10.17;;;;;;;11.83;83.49;95556.16;5120006;27;20192;-68
2023/10/04 01:24:41;;;;;;;20.23;9.97;;;;;;;11.79;83.56;95560.22;5132096;27;20172;-68
2023/10/04 01:27:07;;;;;;;15.10;8.40;;;;;;;11.71;83.70;95556.72;5132320;27;20291;-68
2023/10/04 01:29:33;;;;;;;16.57;7.97;;;;;;;11.75;83.57;95561.63;5132146;27;20196;-68
2023/10/04 01:31:58;;;;;;;17.47;9.43;;;;;;;11.78;83.53;95555.94;5131647;27;20215;-68
2023/10/04 01:34:23;;;;;;;16.47;9.07;;;;;;;11.71;83.41;95556.72;5131794;27;20187;-68
2023/10/04 01:36:49;;;;;;;15.23;8.57;;;;;;;11.66;83.87;95555.72;5131796;27;20210;-68
2023/10/04 01:39:19;;;;;;;14.73;8.13;;;;;;;11.68;83.31;95546.56;5131594;27;20179;-68
2023/10/04 01:41:45;;;;;;;15.63;8.63;;;;;;;11.72;83.39;95560.16;5131738;27;20237;-69
2023/10/04 01:44:11;;;;;;;16.83;8.87;;;;;;;11.67;83.36;95552.06;5131316;27;20176;-68
2023/10/04 01:46:37;;;;;;;16.57;8.33;;;;;;;11.66;83.60;95553.88;5131416;27;20183;-68
2023/10/04 01:49:05;;;;;;;18.27;9.10;;;;;;;11.65;83.53;95554.88;5131515;27;20286;-69
2023/10/04 01:51:31;;;;;;;13.30;8.60;;;;;;;11.63;83.55;95551.63;5131065;27;20180;-69
2023/10/04 01:53:58;;;;;;;19.00;9.27;;;;;;;11.52;83.94;95541.66;5131057;27;20206;-69
2023/10/04 01:56:24;;;;;;;20.40;10.10;;;;;;;11.51;84.25;95550.56;5112674;27;20684;-69
2023/10/04 01:58:49;;;;;;;18.40;9.23;;;;;;;11.53;84.27;95553.03;5130784;27;20174;-69
2023/10/04 02:01:15;;;;;;;20.33;9.27;;;;;;;11.55;84.02;95545.72;5131044;27;20259;-69
2023/10/04 02:03:41;;;;;;;21.37;9.17;;;;;;;11.54;84.29;95549.38;5131216;27;20256;-70
2023/10/04 02:06:08;;;;;;;18.17;8.93;;;;;;;11.52;84.16;95546.13;5131175;27;20182;-70
2023/10/04 02:08:33;;;;;;;16.27;9.03;;;;;;;11.48;84.47;95551.00;5130911;27;20200;-70
2023/10/04 02:10:59;;;;;;;18.53;9.47;;;;;;;11.43;84.62;95548.13;5131253;27;20195;-69
2023/10/04 02:13:25;;;;;;;18.50;8.77;;;;;;;11.42;84.29;95551.78;5131072;27;20180;-69
2023/10/04 02:15:51;;;;;;;18.80;9.97;;;;;;;11.38;84.33;95550.56;5131259;27;20237;-68
2023/10/04 02:18:18;;;;;;;19.60;9.57;;;;;;;11.39;84.56;95557.47;5131132;27;20590;-68
2023/10/04 02:20:48;;;;;;;18.27;9.03;;;;;;;11.38;84.49;95557.66;5131056;27;20366;-69
2023/10/04 02:23:18;;;;;;;16.97;9.27;;;;;;;11.34;84.70;95559.84;5130840;27;20175;-69
2023/10/04 02:25:45;;;;;;;16.97;9.77;;;;;;;11.29;84.78;95546.47;5131012;27;20268;-69
2023/10/04 02:28:11;;;;;;;15.97;9.20;;;;;;;11.32;84.83;95552.19;5130848;27;20239;-69
2023/10/04 02:30:39;;;;;;;20.60;10.50;;;;;;;11.32;84.55;95551.34;5131068;27;20568;-69
2023/10/04 02:33:14;;;;;;;17.57;9.70;;;;;;;11.30;84.63;95548.09;5130884;27;20180;-69
2023/10/04 02:35:44;;;;;;;23.77;11.37;;;;;;;11.28;84.82;95556.19;5102449;28;20172;-70
2023/10/04 02:38:19;;;;;;;21.07;10.33;;;;;;;11.16;84.94;95543.78;5110253;28;20221;-69
2023/10/04 02:40:46;;;;;;;20.40;11.33;;;;;;;11.26;84.78;95560.84;5110197;28;20593;-69
2023/10/04 02:43:11;;;;;;;23.87;10.53;;;;;;;11.20;84.72;95551.09;5110116;28;20226;-69
2023/10/04 02:45:37;;;;;;;21.30;10.93;;;;;;;11.13;84.98;95547.63;5123885;27;20184;-69
2023/10/04 02:48:04;;;;;;;18.47;11.00;;;;;;;11.18;85.10;95555.75;5109611;28;20276;-68
2023/10/04 02:50:29;;;;;;;20.03;10.47;;;;;;;11.14;85.06;95548.44;5109346;28;20173;-68
2023/10/04 02:52:56;;;;;;;25.27;11.03;;;;;;;11.21;85.08;95555.38;5109878;28;20263;-69
2023/10/04 02:55:22;;;;;;;20.37;10.93;;;;;;;11.17;85.18;95558.56;5109707;28;20561;-69
2023/10/04 02:57:51;;;;;;;24.50;13.10;;;;;;;11.16;85.04;95559.59;5110033;28;20256;-69
2023/10/04 03:00:19;;;;;;;18.87;11.03;;;;;;;11.11;85.29;95556.75;5109870;28;20253;-68
2023/10/04 03:02:47;;;;;;;30.27;12.80;;;;;;;11.09;85.35;95558.75;5110097;28;20177;-68
2023/10/04 03:05:15;;;;;;;33.83;13.40;;;;;;;11.02;85.46;95542.91;5109754;28;20173;-69
2023/10/04 03:07:41;;;;;;;21.13;11.07;;;;;;;11.10;85.66;95549.84;5109323;28;20193;-69
2023/10/04 03:10:08;;;;;;;23.90;12.40;;;;;;;11.07;85.73;95558.94;5109662;28;20181;-69
2023/10/04 03:12:34;;;;;;;24.50;10.43;;;;;;;11.12;85.65;95548.66;5109190;28;20181;-69
2023/10/04 03:14:59;;;;;;;25.57;10.90;;;;;;;11.07;85.50;95558.16;5109539;28;20221;-69
2023/10/04 03:17:25;;;;;;;22.13;10.80;;;;;;;11.05;85.60;95555.72;5107590;28;20522;-69
2023/10/04 03:19:51;;;;;;;21.57;10.50;;;;;;;11.02;85.68;95552.66;5109771;28;20215;-71
2023/10/04 03:22:19;;;;;;;20.50;10.70;;;;;;;10.82;85.72;95534.09;5110025;28;20177;-71
2023/10/04 03:24:45;;;;;;;19.40;10.07;;;;;;;10.94;85.83;95551.81;5109562;28;20204;-71
2023/10/04 03:27:11;;;;;;;20.53;11.40;;;;;;;10.80;85.84;95538.78;5109854;28;21064;-71
2023/10/04 03:29:37;;;;;;;42.10;11.73;;;;;;;10.94;86.08;95559.72;5110105;28;20184;-71
2023/10/04 03:32:05;;;;;;;17.03;9.97;;;;;;;10.90;85.93;95557.66;5110265;28;20955;-71
2023/10/04 03:34:30;;;;;;;26.20;10.97;;;;;;;10.89;85.78;95556.84;5108878;28;20184;-70
2023/10/04 03:37:07;;;;;;;22.70;10.20;;;;;;;10.89;85.90;95556.84;5108403;28;20181;-71
2023/10/04 03:39:33;;;;;;;23.80;10.43;;;;;;;10.91;85.67;95560.09;5109514;28;20501;-69
2023/10/04 03:41:59;;;;;;;30.23;11.27;;;;;;;10.79;85.49;95548.50;5108933;28;20277;-69
2023/10/04 03:44:25;;;;;;;22.33;10.40;;;;;;;10.89;85.95;95558.69;5109167;28;20176;-69
2023/10/04 03:46:53;;;;;;;22.33;10.73;;;;;;;10.89;85.72;95570.03;5109548;28;20178;-71
2023/10/04 03:49:19;;;;;;;17.93;9.30;;;;;;;10.89;85.88;95564.75;5109296;28;20707;-71
2023/10/04 03:51:45;;;;;;;24.43;11.63;;;;;;;10.88;85.63;95562.31;5109453;28;20169;-71
2023/10/04 03:54:12;;;;;;;19.17;9.80;;;;;;;10.87;85.72;95573.84;5109360;28;20180;-71
2023/10/04 03:56:41;;;;;;;23.00;11.43;;;;;;;10.78;85.86;95553.94;5109486;28;20203;-71
2023/10/04 03:59:08;;;;;;;20.77;11.67;;;;;;;10.73;85.68;95549.25;5109558;28;21626;-71
2023/10/04 04:01:33;;;;;;;22.43;11.97;;;;;;;10.76;86.05;95562.03;5109689;28;20181;-71
2023/10/04 04:04:03;;;;;;;27.10;12.63;;;;;;;10.61;85.86;95539.47;5127227;27;20176;-72
2023/10/04 04:06:29;;;;;;;20.57;12.03;;;;;;;10.74;86.40;95558.78;5133714;27;20176;-71
2023/10/04 04:08:56;;;;;;;25.07;12.37;;;;;;;10.75;86.39;95564.88;5133247;27;20196;-72
2023/10/04 04:11:22;;;;;;;27.27;12.60;;;;;;;10.63;86.35;95540.91;5133029;27;20189;-71
2023/10/04 04:13:48;;;;;;;22.27;11.80;;;;;;;10.71;86.38;95558.38;5133092;27;20180;-71
2023/10/04 04:16:16;;;;;;;21.80;11.57;;;;;;;10.71;86.34;95556.56;5133484;27;20757;-70
2023/10/04 04:18:42;;;;;;;26.20;11.83;;;;;;;10.63;86.35;95546.19;5133134;27;20179;-71
2023/10/04 04:21:07;;;;;;;38.57;12.67;;;;;;;10.68;86.42;95548.22;5133325;27;20180;-71
2023/10/04 04:23:34;;;;;;;28.00;13.27;;;;;;;10.67;86.01;95552.66;5133165;27;20184;-71
2023/10/04 04:26:00;;;;;;;23.90;12.90;;;;;;;10.66;86.43;95560.75;5132984;27;20220;-71
2023/10/04 04:28:26;;;;;;;24.33;13.93;;;;;;;10.65;86.28;95554.69;5133304;27;20300;-71
2023/10/04 04:30:53;;;;;;;45.00;15.57;;;;;;;10.54;86.50;95542.88;5133155;27;20899;-70
2023/10/04 04:33:19;;;;;;;27.03;12.43;;;;;;;10.66;86.21;95555.50;5133311;27;20237;-70
2023/10/04 04:40:49;;;;;;;26.90;13.23;;;;;;;10.67;86.30;95554.50;5132829;27;20187;-70
2023/10/04 04:45:52;;;;;;;31.87;14.40;;;;;;;10.73;86.70;95551.88;5132732;27;20187;-70
2023/10/04 04:48:19;;;;;;;49.10;15.40;;;;;;;10.82;86.96;95549.91;5132431;27;20200;-70
2023/10/04 04:50:48;;;;;;;28.73;13.10;;;;;;;10.84;86.82;95553.97;5132571;27;20183;-71
2023/10/04 04:53:18;;;;;;;29.20;14.30;;;;;;;10.90;86.49;95557.66;5114095;27;20180;-71
2023/10/04 04:55:44;;;;;;;37.57;12.90;;;;;;;10.96;86.24;95560.34;5133053;27;20173;-70
2023/10/04 04:58:13;;;;;;;27.80;13.20;;;;;;;11.02;85.80;95560.53;5133048;27;20176;-71
2023/10/04 05:00:42;;;;;;;27.80;12.20;;;;;;;11.11;85.80;95562.81;5133021;27;20673;-71
2023/10/04 05:03:08;;;;;;;33.47;12.90;;;;;;;11.41;85.41;95563.34;5132855;27;20180;-71
2023/10/04 05:05:34;;;;;;;35.53;12.43;;;;;;;12.28;83.60;95568.56;5132671;27;20187;-71
2023/10/04 05:08:00;;;;;;;45.53;14.00;;;;;;;13.56;79.78;95577.63;5132654;27;20624;-71
2023/10/04 05:10:29;;;;;;;39.80;13.80;;;;;;;14.92;74.94;95577.84;5132150;27;20175;-71
2023/10/04 05:12:55;;;;;;;38.78;13.05;;;;;;;16.04;68.95;95581.78;5131640;27;20297;-71
2023/10/04 05:15:22;;;;;;;48.03;12.30;;;;;;;16.42;65.74;95584.91;5131053;27;20215;-70
2023/10/04 05:17:51;;;;;;;47.88;13.65;;;;;;;16.25;65.03;95578.63;5131503;27;20177;-71
2023/10/04 05:20:21;;;;;;;39.95;11.45;;;;;;;15.89;66.45;95584.88;5131829;27;20173;-70
2023/10/04 05:22:49;;;;;;;30.80;11.65;;;;;;;16.15;66.30;95595.13;5132030;27;20627;-70
2023/10/04 05:25:20;;;;;;;29.83;11.13;;;;;;;17.04;64.93;95589.81;5131478;27;20310;-70
2023/10/04 05:27:48;;;;;;;41.85;11.50;;;;;;;18.23;61.04;95597.00;5131957;27;20203;-70
2023/10/04 05:30:16;;;;;;;38.38;12.00;;;;;;;19.47;57.99;95596.75;5132176;27;20173;-68
2023/10/04 05:32:42;;;;;;;31.33;12.18;;;;;;;20.42;53.91;95595.44;5132262;27;20176;-70
2023/10/04 05:35:14;;;;;;;34.00;12.57;;;;;;;21.21;52.23;95599.03;5131912;27;20538;-69
2023/10/04 05:37:45;;;;;;;26.48;11.05;;;;;;;22.12;49.44;95601.31;5131964;27;20229;-69
2023/10/04 05:40:19;;;;;;;28.42;11.80;;;;;;;22.97;47.40;95607.88;5132349;27;20347;-69
2023/10/04 05:42:44;;;;;;;37.22;11.65;;;;;;;23.83;45.43;95599.63;5131936;27;20186;-69
2023/10/04 05:45:11;;;;;;;27.85;11.68;;;;;;;24.66;43.46;95602.38;5131923;27;20168;-69
2023/10/04 05:47:39;;;;;;;26.60;10.25;;;;;;;25.46;41.28;95610.84;5131448;27;20232;-69
2023/10/04 05:50:06;;;;;;;23.75;10.43;;;;;;;26.14;40.24;95610.59;5113403;27;20183;-69
2023/10/04 05:52:34;;;;;;;28.08;10.85;;;;;;;26.79;38.68;95608.09;5131888;27;20662;-69
2023/10/04 05:55:00;;;;;;;20.48;10.40;;;;;;;27.44;37.16;95618.91;5131530;27;20203;-69
2023/10/04 05:57:28;;;;;;;20.02;10.07;;;;;;;28.03;35.49;95626.16;5131507;27;20168;-69
2023/10/04 05:59:53;;;;;;;19.73;10.40;;;;;;;28.57;34.58;95623.69;5131668;27;20161;-70
2023/10/04 06:02:19;;;;;;;18.65;9.02;;;;;;;29.07;33.74;95632.56;5131437;27;20176;-70
2023/10/04 06:04:48;;;;;;;25.23;11.50;;;;;;;29.46;32.95;95616.41;5131619;27;20229;-70
2023/10/04 06:07:13;;;;;;;18.50;9.30;;;;;;;29.84;32.40;95614.00;5131353;27;20168;-70
2023/10/04 06:09:42;;;;;;;24.05;10.60;;;;;;;30.21;31.45;95620.06;5131362;27;20172;-70
2023/10/04 06:12:11;;;;;;;24.08;9.75;;;;;;;30.55;30.96;95624.78;5108493;28;20178;-70
2023/10/04 06:14:37;;;;;;;16.58;9.02;;;;;;;30.88;30.51;95628.63;5110547;28;20176;-70
2023/10/04 06:17:06;;;;;;;18.67;10.02;;;;;;;31.19;29.73;95627.66;5110441;28;20173;-70
2023/10/04 06:19:31;;;;;;;16.42;9.30;;;;;;;31.27;29.28;95630.38;5110199;28;20184;-70
2023/10/04 06:21:57;;;;;;;19.98;9.68;;;;;;;31.41;29.17;95630.97;5110396;28;20173;-69
2023/10/04 06:24:22;;;;;;;18.67;9.40;;;;;;;31.63;28.65;95637.38;5110812;28;20180;-69
2023/10/04 06:26:48;;;;;;;22.40;9.55;;;;;;;31.67;28.45;95633.66;5109817;28;20256;-70
2023/10/04 06:29:14;;;;;;;19.67;9.80;;;;;;;31.77;28.42;95633.31;5110565;28;20212;-70
2023/10/04 06:31:40;;;;;;;16.80;10.48;;;;;;;32.08;27.36;95634.94;5110330;27;20173;-69
2023/10/04 06:34:06;;;;;;;16.25;9.70;;;;;;;31.77;27.67;95619.69;5110788;28;20181;-69
2023/10/04 06:36:31;;;;;;;20.48;11.23;;;;;;;31.91;27.22;95632.31;5122775;27;20188;-71
2023/10/04 06:38:56;;;;;;;29.20;15.65;;;;;;;32.01;27.77;95631.91;5130665;27;20180;-68
2023/10/04 06:41:25;;;;;;;24.20;11.77;;;;;;;32.33;26.54;95638.69;5131045;27;20175;-69
2023/10/04 06:43:50;;;;;;;49.00;35.05;;;;;;;32.35;26.80;95642.66;5131103;27;20650;-68
2023/10/04 06:46:17;;;;;;;53.90;37.70;;;;;;;32.33;27.30;95639.50;5130874;27;20176;-68
2023/10/04 06:48:42;;;;;;;53.35;32.90;;;;;;;31.87;27.99;95632.16;5130788;27;20224;-71
2023/10/04 06:51:08;;;;;;;59.95;38.78;;;;;;;30.94;29.54;95643.69;5130678;27;20626;-68
2023/10/04 06:53:33;;;;;;;27.38;16.48;;;;;;;30.33;30.20;95645.50;5131203;28;20172;-71
2023/10/04 06:55:59;;;;;;;21.98;10.70;;;;;;;29.85;30.39;95645.47;5131093;28;20202;-69
2023/10/04 06:58:25;;;;;;;17.92;9.18;;;;;;;28.73;31.89;95641.19;5131077;28;20172;-69
2023/10/04 07:00:50;;;;;;;14.43;8.82;;;;;;;27.83;34.23;95650.94;5130975;28;20179;-71
2023/10/04 07:03:16;;;;;;;22.65;9.45;;;;;;;26.92;36.07;95641.69;5131013;28;20177;-71
2023/10/04 07:05:42;;;;;;;17.35;9.35;;;;;;;26.48;37.13;95640.16;5112453;28;20172;-70
2023/10/04 07:08:12;;;;;;;17.40;10.20;;;;;;;25.75;38.72;95640.53;5130946;28;20204;-70
2023/10/04 07:10:38;;;;;;;15.07;9.10;;;;;;;25.21;39.30;95638.06;5130857;28;20222;-70
2023/10/04 07:13:05;;;;;;;23.67;10.45;;;;;;;24.59;40.91;95633.41;5130966;28;20176;-70
2023/10/04 07:15:35;;;;;;;19.83;9.57;;;;;;;24.05;42.44;95626.13;5130829;28;20185;-70
2023/10/04 07:18:02;;;;;;;23.55;9.23;;;;;;;23.96;43.12;95619.72;5130756;28;20176;-70
2023/10/04 07:20:27;;;;;;;16.42;9.77;;;;;;;23.85;43.49;95616.28;5130701;28;20666;-69
2023/10/04 07:23:03;;;;;;;25.58;10.85;;;;;;;23.72;44.17;95619.56;5130270;28;20168;-69
2023/10/04 07:25:34;;;;;;;16.33;8.80;;;;;;;23.52;43.47;95616.94;5130706;28;20753;-69
2023/10/04 07:28:02;;;;;;;20.95;8.90;;;;;;;23.13;43.64;95611.34;5130563;28;20224;-69
2023/10/04 07:30:33;;;;;;;24.25;9.05;;;;;;;23.02;45.40;95609.72;5130165;28;20168;-69
2023/10/04 07:33:01;;;;;;;29.10;10.07;;;;;;;23.04;44.96;95604.91;5130718;28;21721;-69
2023/10/04 07:35:27;;;;;;;16.00;8.45;;;;;;;22.94;45.01;95601.16;5130799;28;20173;-69
2023/10/04 07:37:54;;;;;;;18.27;8.88;;;;;;;22.84;45.03;95598.47;5133434;27;20603;-69
2023/10/04 07:40:23;;;;;;;21.65;9.60;;;;;;;22.87;44.77;95606.00;5133879;27;20172;-69
2023/10/04 07:42:52;;;;;;;17.02;8.50;;;;;;;22.96;43.85;95606.25;5133210;27;20249;-69
2023/10/04 07:45:18;;;;;;;18.05;8.57;;;;;;;22.85;43.99;95605.44;5133236;27;20206;-70
2023/10/04 07:47:44;;;;;;;17.92;8.90;;;;;;;22.86;43.41;95600.88;5132979;27;20192;-70
2023/10/04 07:50:11;;;;;;;19.75;8.95;;;;;;;22.95;44.37;95602.75;5133035;27;20176;-69
2023/10/04 07:52:42;;;;;;;14.55;8.05;;;;;;;23.17;44.67;95604.34;5133368;27;20204;-69
2023/10/04 07:55:18;;;;;;;13.90;7.22;;;;;;;23.32;43.46;95602.44;5133821;27;20172;-70
2023/10/04 07:57:49;;;;;;;13.70;8.73;;;;;;;23.45;43.71;95601.06;5117543;27;20175;-70
2023/10/04 08:00:16;;;;;;;15.77;8.65;;;;;;;23.79;43.16;95597.72;5134292;27;20251;-70
2023/10/04 08:02:49;;;;;;;16.63;8.60;;;;;;;23.81;41.73;95603.66;5134167;27;20172;-70
2023/10/04 08:05:35;;;;;;;16.83;8.13;;;;;;;23.84;41.45;95601.22;5134225;27;20591;-70
2023/10/04 08:08:04;;;;;;;20.08;8.93;;;;;;;23.23;42.53;95579.09;5133723;27;20209;-70
2023/10/04 08:10:32;;;;;;;16.90;8.45;;;;;;;23.25;42.96;95591.19;5133946;27;20172;-70
2023/10/04 08:13:01;;;;;;;18.73;9.27;;;;;;;23.26;43.53;95590.06;5133961;27;20196;-70
2023/10/04 08:15:29;;;;;;;16.17;8.63;;;;;;;23.60;42.60;95589.50;5133540;27;20247;-70
2023/10/04 08:17:56;;;;;;;19.77;8.00;;;;;;;23.78;43.45;95590.78;5127126;27;20184;-70
2023/10/04 08:20:24;;;;;;;18.50;8.68;;;;;;;23.83;41.95;95588.06;5112984;28;20176;-70
2023/10/04 08:22:50;;;;;;;17.33;8.27;;;;;;;24.02;42.56;95589.03;5113160;28;20173;-70
2023/10/04 08:25:19;;;;;;;18.27;9.02;;;;;;;24.35;41.76;95577.56;5113077;27;20610;-70
2023/10/04 08:27:44;;;;;;;20.10;8.57;;;;;;;24.60;41.46;95576.56;5094458;28;20197;-70
2023/10/04 08:30:13;;;;;;;18.58;8.90;;;;;;;24.76;40.63;95571.88;5112824;28;20663;-70
2023/10/04 08:32:46;;;;;;;14.82;8.27;;;;;;;25.04;40.50;95573.81;5112657;28;20183;-69
2023/10/04 08:35:21;;;;;;;16.25;8.32;;;;;;;25.19;40.00;95573.66;5113078;28;20173;-70
2023/10/04 08:37:54;;;;;;;21.52;9.13;;;;;;;25.28;39.98;95571.13;5112940;28;20168;-70
2023/10/04 08:40:26;;;;;;;17.73;8.77;;;;;;;25.00;39.41;95570.06;5112768;28;20177;-70
2023/10/04 08:42:52;;;;;;;18.20;9.27;;;;;;;25.11;40.34;95570.78;5112932;28;20257;-71
2023/10/04 08:45:21;;;;;;;17.00;9.15;;;;;;;25.07;40.72;95572.44;5112195;28;20761;-70
2023/10/04 08:47:51;;;;;;;15.77;8.00;;;;;;;25.23;39.47;95573.09;5112039;28;20200;-70
2023/10/04 08:50:38;;;;;;;15.98;8.82;;;;;;;24.87;40.35;95562.63;5112001;28;20181;-70
2023/10/04 08:53:44;;;;;;;15.02;8.80;;;;;;;24.32;41.71;95569.22;5112099;28;20169;-70
2023/10/04 08:56:13;;;;;;;17.15;8.48;;;;;;;24.71;41.51;95558.44;5112476;28;20251;-70
2023/10/04 08:58:40;;;;;;;26.73;10.35;;;;;;;24.35;41.32;95553.34;5112793;28;20180;-70
2023/10/04 09:01:09;;;;;;;13.85;7.35;;;;;;;24.66;41.81;95555.78;5094363;28;20300;-69
2023/10/04 09:03:35;;;;;;;24.73;9.43;;;;;;;24.84;41.11;95560.47;5112515;28;20648;-70
2023/10/04 09:06:02;;;;;;;16.15;8.13;;;;;;;24.89;40.34;95562.34;5112376;28;20165;-70
2023/10/04 09:08:29;;;;;;;27.13;9.25;;;;;;;24.95;41.70;95561.22;5112361;28;20225;-70
2023/10/04 09:10:55;;;;;;;27.65;10.10;;;;;;;24.77;40.75;95565.41;5112155;28;20173;-70
2023/10/04 09:13:22;;;;;;;28.45;9.93;;;;;;;24.49;40.76;95555.38;5112294;28;20169;-70
2023/10/04 09:15:48;;;;;;;23.77;8.98;;;;;;;24.44;41.40;95550.84;5112345;28;20257;-70
2023/10/04 09:18:24;;;;;;;17.10;9.13;;;;;;;24.24;41.65;95565.25;5112192;28;20936;-70
2023/10/04 09:20:50;;;;;;;20.00;9.10;;;;;;;24.34;41.61;95565.19;5111932;28;20176;-70
2023/10/04 09:23:17;;;;;;;18.80;8.90;;;;;;;24.42;41.41;95555.72;5111181;28;20576;-70
2023/10/04 09:25:45;;;;;;;20.77;9.13;;;;;;;24.16;41.82;95555.03;5110908;28;20699;-70
2023/10/04 09:28:11;;;;;;;13.80;8.57;;;;;;;24.34;41.83;95545.53;5111195;28;20683;-70
2023/10/04 09:30:37;;;;;;;18.40;8.75;;;;;;;24.24;41.97;95538.34;5111456;28;20191;-70
2023/10/04 09:33:20;;;;;;;18.58;9.57;;;;;;;24.48;41.61;95546.50;5111277;28;20207;-70
2023/10/04 09:35:45;;;;;;;16.80;8.63;;;;;;;24.65;41.94;95552.28;5111356;28;20669;-70
2023/10/04 09:38:22;;;;;;;17.40;8.60;;;;;;;24.65;40.50;95538.03;5111373;28;20252;-70
2023/10/04 09:40:56;;;;;;;25.10;9.32;;;;;;;24.65;41.27;95535.34;5111002;28;20208;-70
2023/10/04 09:43:42;;;;;;;15.95;8.18;;;;;;;24.75;40.96;95530.66;5111359;28;20280;-70
2023/10/04 09:46:12;;;;;;;22.20;8.25;;;;;;;24.99;41.50;95536.13;5111290;28;20651;-70
2023/10/04 09:48:41;;;;;;;17.05;8.38;;;;;;;25.12;40.73;95531.97;5093278;28;20201;-70
2023/10/04 09:51:09;;;;;;;27.77;9.32;;;;;;;24.76;40.11;95537.66;5111639;28;20508;-70
2023/10/04 09:53:38;;;;;;;15.07;7.75;;;;;;;24.50;40.82;95538.94;5111643;28;20919;-70
2023/10/04 09:56:04;;;;;;;14.98;8.73;;;;;;;24.34;41.89;95534.78;5111295;28;20181;-69
2023/10/04 09:58:31;;;;;;;12.90;7.90;;;;;;;24.34;41.52;95537.47;5111469;28;20177;-70
2023/10/04 10:01:19;;;;;;;18.23;9.02;;;;;;;24.47;42.12;95531.47;5111195;28;20682;-70
2023/10/04 10:04:07;;;;;;;17.05;7.75;;;;;;;24.62;41.51;95528.63;5111253;28;20683;-69
2023/10/04 10:06:41;;;;;;;15.68;7.55;;;;;;;24.46;40.19;95512.88;5111288;28;20216;-69
2023/10/04 10:09:08;;;;;;;16.20;7.32;;;;;;;24.48;40.65;95524.97;5092646;28;20584;-69
2023/10/04 10:11:34;;;;;;;17.60;7.97;;;;;;;24.48;41.23;95516.06;5092717;28;20634;-69
2023/10/04 10:14:10;;;;;;;16.88;7.60;;;;;;;24.53;40.89;95511.47;5110492;28;20208;-69
2023/10/04 10:16:36;;;;;;;15.65;8.35;;;;;;;24.57;40.45;95515.19;5126170;27;20646;-70
2023/10/04 10:19:03;;;;;;;17.55;7.47;;;;;;;24.48;40.41;95508.00;5131150;27;20176;-70
2023/10/04 10:22:02;;;;;;;17.38;7.97;;;;;;;24.30;41.92;95502.22;5131008;27;20217;-70
2023/10/04 10:24:27;;;;;;;14.52;7.57;;;;;;;24.11;41.84;95485.13;5126732;27;20172;-69
2023/10/04 10:27:03;;;;;;;15.45;6.43;;;;;;;24.13;41.12;95474.88;5118670;27;20243;-70
2023/10/04 10:29:31;;;;;;;15.77;6.40;;;;;;;24.26;41.11;95493.09;5106004;28;20591;-70
2023/10/04 10:31:56;;;;;;;29.10;7.32;;;;;;;24.34;41.45;95486.31;5110794;28;20181;-70
2023/10/04 10:34:22;;;;;;;15.38;6.80;;;;;;;24.42;41.09;95485.72;5110709;28;20172;-70
2023/10/04 10:37:07;;;;;;;15.75;7.63;;;;;;;24.48;40.61;95476.50;5110663;28;20713;-70
2023/10/04 10:39:43;;;;;;;11.30;5.72;;;;;;;24.54;40.16;95475.38;5110512;28;20177;-70
2023/10/04 10:42:11;;;;;;;21.42;6.95;;;;;;;24.59;40.05;95467.25;5110597;28;20173;-69
2023/10/04 10:44:39;;;;;;;11.15;6.45;;;;;;;24.64;39.83;95471.81;5110693;28;20643;-69
2023/10/04 10:47:21;;;;;;;11.70;7.35;;;;;;;24.63;41.07;95451.34;5110775;28;20184;-70
2023/10/04 10:49:52;;;;;;;17.38;6.78;;;;;;;24.80;40.71;95463.28;5109886;28;20192;-70
2023/10/04 10:52:23;;;;;;;12.77;6.15;;;;;;;24.84;39.17;95468.88;5109722;28;20169;-70
2023/10/04 10:54:56;;;;;;;10.93;5.95;;;;;;;24.72;39.44;95465.78;5109974;28;20187;-70
2023/10/04 10:57:23;;;;;;;15.80;6.45;;;;;;;24.72;38.91;95463.09;5109817;28;20177;-70
2023/10/04 10:59:53;;;;;;;12.70;6.03;;;;;;;24.66;38.86;95461.53;5108455;28;20234;-69
2023/10/04 11:02:19;;;;;;;13.48;6.25;;;;;;;24.56;39.31;95462.41;5109752;28;20184;-70
2023/10/04 11:04:45;;;;;;;18.00;6.70;;;;;;;24.48;39.22;95454.97;5109811;28;20177;-70
2023/10/04 11:07:13;;;;;;;16.70;6.30;;;;;;;24.50;39.55;95463.56;5109580;28;20227;-69
2023/10/04 11:09:39;;;;;;;15.07;6.53;;;;;;;24.43;39.19;95455.81;5109667;28;20196;-70
2023/10/04 11:12:08;;;;;;;15.30;5.95;;;;;;;24.47;39.37;95453.38;5111407;28;20169;-70
2023/10/04 11:14:37;;;;;;;15.50;6.22;;;;;;;24.57;38.53;95452.44;5114041;28;20172;-70
2023/10/04 11:17:04;;;;;;;14.48;5.95;;;;;;;24.65;38.56;95439.19;5113965;28;20206;-69
2023/10/04 11:19:31;;;;;;;9.95;5.43;;;;;;;24.79;38.06;95442.00;5114187;28;20586;-70
2023/10/04 11:21:57;;;;;;;10.75;5.18;;;;;;;24.85;37.03;95443.56;5113768;28;20173;-70
2023/10/04 11:24:23;;;;;;;12.65;5.35;;;;;;;24.85;36.12;95432.78;5113711;28;20172;-70
2023/10/04 11:26:49;;;;;;;14.13;4.97;;;;;;;24.90;34.75;95429.25;5114034;28;20226;-69
2023/10/04 11:29:15;;;;;;;7.43;4.15;;;;;;;24.92;35.13;95427.06;5113571;28;20220;-69
2023/10/04 11:31:41;;;;;;;10.70;5.47;;;;;;;25.03;34.27;95428.56;5113580;28;20207;-69
2023/10/04 11:34:08;;;;;;;8.48;4.22;;;;;;;24.98;32.75;95421.34;5113512;28;20200;-69